Time;durP1;ratioP1;P1;durP2;ratioP2;P2;SDS_P1;SDS_P2;PMS_P1;PMS_P2;Temp;Humidity;BMP_temperature;BMP_pressure;BME280_temperature;BME280_humidity;BME280_pressure;Samples;Min_cycle;Max_cycle;Signal;HPM_P1;HPM_P2
2023/12/25 00:01:55;;;;;;;13.90;2.78;;;;;;;;;;5008294;28;20054;-61
2023/12/25 00:04:21;;;;;;;16.00;3.53;;;;;;;;;;5007347;28;20112;-61
2023/12/25 00:06:48;;;;;;;19.38;3.33;;;;;;;;;;5008859;28;20167;-61
2023/12/25 00:09:14;;;;;;;15.82;3.13;;;;;;;;;;5008012;28;20063;-61
2023/12/25 00:11:40;;;;;;;14.23;2.63;;;;;;;;;;5008217;28;20081;-61
2023/12/25 00:14:06;;;;;;;16.50;3.45;;;;;;;;;;5008450;28;20025;-60
2023/12/25 00:16:32;;;;;;;18.05;2.97;;;;;;;;;;5008257;28;20037;-61
2023/12/25 00:18:58;;;;;;;16.30;3.10;;;;;;;;;;5007424;28;20034;-60
2023/12/25 00:21:26;;;;;;;24.05;3.28;;;;;;;;;;5008001;28;20033;-61
2023/12/25 00:23:52;;;;;;;17.27;3.20;;;;;;;;;;5008566;28;20041;-61
2023/12/25 00:26:18;;;;;;;15.35;2.72;;;;;;;;;;5006540;28;20041;-61
2023/12/25 00:28:44;;;;;;;16.58;2.92;;;;;;;;;;5008090;28;20231;-60
2023/12/25 00:31:10;;;;;;;14.60;3.30;;;;;;;;;;5007513;28;20030;-61
2023/12/25 00:33:36;;;;;;;11.60;2.38;;;;;;;;;;5006918;28;20033;-61
2023/12/25 00:36:02;;;;;;;13.82;2.58;;;;;;;;;;5006874;28;20030;-61
2023/12/25 00:38:28;;;;;;;17.13;3.67;;;;;;;;;;5008315;28;20683;-60
2023/12/25 00:40:54;;;;;;;16.45;3.03;;;;;;;;;;5006980;28;20050;-61
2023/12/25 00:43:20;;;;;;;17.38;2.50;;;;;;;;;;5007030;28;20100;-61
2023/12/25 00:45:47;;;;;;;14.35;2.15;;;;;;;;;;5008419;28;20546;-61
2023/12/25 00:48:13;;;;;;;16.25;2.65;;;;;;;;;;5007799;28;20030;-61
2023/12/25 00:50:39;;;;;;;10.98;2.92;;;;;;;;;;5007367;28;20029;-61
2023/12/25 00:53:05;;;;;;;14.25;2.33;;;;;;;;;;5007007;28;20034;-60
2023/12/25 00:55:32;;;;;;;11.48;2.22;;;;;;;;;;5007216;28;20041;-60
2023/12/25 00:57:58;;;;;;;12.60;2.38;;;;;;;;;;5006644;28;20469;-60
2023/12/25 01:00:24;;;;;;;13.95;2.30;;;;;;;;;;5007496;28;20125;-61
2023/12/25 01:02:50;;;;;;;11.75;1.83;;;;;;;;;;5007351;28;20043;-61
2023/12/25 01:05:16;;;;;;;9.40;2.15;;;;;;;;;;5007570;28;21797;-61
2023/12/25 01:07:42;;;;;;;11.70;2.10;;;;;;;;;;5006516;28;20445;-61
2023/12/25 01:10:08;;;;;;;13.30;2.10;;;;;;;;;;5007850;28;20525;-60
2023/12/25 01:12:34;;;;;;;9.95;1.45;;;;;;;;;;5005299;28;20637;-60
2023/12/25 01:15:00;;;;;;;10.52;1.80;;;;;;;;;;5008554;28;20417;-61
2023/12/25 01:17:26;;;;;;;15.75;2.10;;;;;;;;;;5006995;28;20070;-61
2023/12/25 01:19:52;;;;;;;8.00;1.50;;;;;;;;;;5007647;28;20526;-61
2023/12/25 01:22:19;;;;;;;13.00;2.22;;;;;;;;;;5006403;28;20025;-61
2023/12/25 01:24:45;;;;;;;10.38;1.75;;;;;;;;;;5007036;28;21807;-60
2023/12/25 01:27:11;;;;;;;14.50;2.63;;;;;;;;;;5007283;28;20152;-60
2023/12/25 01:29:37;;;;;;;11.35;1.90;;;;;;;;;;5006540;28;20057;-60
2023/12/25 01:32:03;;;;;;;15.27;2.08;;;;;;;;;;5006087;28;20033;-60
2023/12/25 01:34:29;;;;;;;11.30;2.63;;;;;;;;;;5005646;28;20080;-61
2023/12/25 01:36:55;;;;;;;13.20;2.38;;;;;;;;;;5007283;28;20115;-60
2023/12/25 01:39:23;;;;;;;12.50;1.75;;;;;;;;;;5006101;28;20037;-60
2023/12/25 01:41:49;;;;;;;8.85;1.70;;;;;;;;;;5007460;28;20117;-60
2023/12/25 01:44:15;;;;;;;10.32;1.88;;;;;;;;;;5006818;28;20037;-61
2023/12/25 01:46:42;;;;;;;13.10;2.67;;;;;;;;;;5007195;28;20473;-60
2023/12/25 01:49:08;;;;;;;10.57;2.13;;;;;;;;;;5007223;28;20784;-61
2023/12/25 01:51:34;;;;;;;15.75;2.30;;;;;;;;;;5007333;28;20060;-60
2023/12/25 01:54:04;;;;;;;10.98;2.17;;;;;;;;;;5006316;28;20033;-60
2023/12/25 01:56:31;;;;;;;11.63;1.90;;;;;;;;;;5005626;28;20437;-61
2023/12/25 01:58:57;;;;;;;8.98;1.75;;;;;;;;;;5006514;28;20034;-60
2023/12/25 02:01:23;;;;;;;10.10;1.88;;;;;;;;;;5004349;28;20060;-60
2023/12/25 02:03:49;;;;;;;10.82;1.98;;;;;;;;;;5006474;28;20660;-61
2023/12/25 02:06:15;;;;;;;10.73;2.35;;;;;;;;;;5006296;28;20087;-61
2023/12/25 02:08:42;;;;;;;12.00;2.72;;;;;;;;;;5005901;28;20107;-60
2023/12/25 02:11:08;;;;;;;13.25;2.17;;;;;;;;;;5002963;28;20120;-60
2023/12/25 02:13:34;;;;;;;10.27;2.22;;;;;;;;;;5005307;28;20068;-60
2023/12/25 02:16:00;;;;;;;13.95;2.30;;;;;;;;;;5006110;28;20131;-61
2023/12/25 02:18:26;;;;;;;13.50;2.35;;;;;;;;;;5005827;28;20049;-61
2023/12/25 02:20:53;;;;;;;14.57;2.53;;;;;;;;;;5006775;28;20045;-60
2023/12/25 02:23:19;;;;;;;15.80;2.65;;;;;;;;;;5005008;28;20128;-60
2023/12/25 02:25:58;;;;;;;11.57;2.33;;;;;;;;;;5004557;28;20026;-60
2023/12/25 02:28:25;;;;;;;13.13;2.13;;;;;;;;;;5005491;28;20048;-69
2023/12/25 02:30:51;;;;;;;9.48;2.03;;;;;;;;;;5004761;28;20034;-68
2023/12/25 02:33:17;;;;;;;11.70;2.00;;;;;;;;;;5006000;28;20037;-68
2023/12/25 02:35:43;;;;;;;14.02;2.40;;;;;;;;;;5004869;28;21443;-69
2023/12/25 02:38:10;;;;;;;13.15;2.10;;;;;;;;;;5006400;28;20045;-68
2023/12/25 02:40:39;;;;;;;10.48;2.45;;;;;;;;;;5005089;28;20654;-69
2023/12/25 02:43:05;;;;;;;13.27;2.60;;;;;;;;;;5006284;28;20033;-68
2023/12/25 02:45:31;;;;;;;17.50;2.33;;;;;;;;;;5004985;28;20037;-67
2023/12/25 02:47:57;;;;;;;13.68;2.47;;;;;;;;;;5004475;28;20033;-69
2023/12/25 02:50:23;;;;;;;15.00;2.28;;;;;;;;;;5005994;28;20025;-68
2023/12/25 02:52:49;;;;;;;17.90;2.65;;;;;;;;;;5005847;28;20685;-68
2023/12/25 02:55:15;;;;;;;13.20;2.35;;;;;;;;;;5005889;28;20412;-68
2023/12/25 02:57:41;;;;;;;12.60;2.95;;;;;;;;;;5006314;28;21877;-68
2023/12/25 03:00:07;;;;;;;17.08;2.67;;;;;;;;;;5006592;28;21035;-68
2023/12/25 03:02:33;;;;;;;17.15;2.90;;;;;;;;;;5005444;28;20065;-68
2023/12/25 03:04:59;;;;;;;16.73;2.45;;;;;;;;;;5004597;28;20675;-68
2023/12/25 03:07:25;;;;;;;15.95;3.25;;;;;;;;;;5006063;28;20508;-68
2023/12/25 03:09:52;;;;;;;16.42;2.92;;;;;;;;;;5005282;28;20822;-68
2023/12/25 03:12:18;;;;;;;10.77;2.58;;;;;;;;;;5004754;28;20041;-68
2023/12/25 03:14:44;;;;;;;20.67;3.20;;;;;;;;;;5003962;28;20191;-68
2023/12/25 03:17:10;;;;;;;11.38;2.13;;;;;;;;;;5004351;28;20044;-68
2023/12/25 03:19:36;;;;;;;16.90;2.33;;;;;;;;;;5004295;28;20033;-68
2023/12/25 03:22:02;;;;;;;13.10;2.40;;;;;;;;;;5003721;28;20091;-68
2023/12/25 03:24:28;;;;;;;19.83;2.83;;;;;;;;;;5005348;28;20112;-68
2023/12/25 03:26:54;;;;;;;14.93;2.20;;;;;;;;;;5004081;28;20128;-68
2023/12/25 03:29:20;;;;;;;11.70;1.95;;;;;;;;;;5004723;28;20117;-68
2023/12/25 03:31:46;;;;;;;19.65;2.65;;;;;;;;;;5004649;28;20678;-69
2023/12/25 03:34:18;;;;;;;12.60;2.85;;;;;;;;;;5005824;28;20649;-68
2023/12/25 03:36:44;;;;;;;12.20;2.05;;;;;;;;;;5009097;28;20068;-69
2023/12/25 03:39:10;;;;;;;21.95;2.42;;;;;;;;;;5008861;28;20037;-68
2023/12/25 03:41:36;;;;;;;15.48;2.67;;;;;;;;;;5007682;28;20030;-68
2023/12/25 03:44:02;;;;;;;12.88;2.50;;;;;;;;;;5008343;28;20033;-69
2023/12/25 03:46:29;;;;;;;14.27;3.13;;;;;;;;;;5008832;28;20025;-68
2023/12/25 03:48:55;;;;;;;15.13;2.30;;;;;;;;;;5009595;28;20040;-68
2023/12/25 03:51:21;;;;;;;11.90;2.58;;;;;;;;;;5009276;28;20034;-68
2023/12/25 03:53:47;;;;;;;11.48;2.70;;;;;;;;;;5009203;28;20030;-68
2023/12/25 03:56:17;;;;;;;12.13;2.05;;;;;;;;;;5008351;28;20072;-68
2023/12/25 03:58:43;;;;;;;14.20;2.60;;;;;;;;;;5008809;28;20452;-68
2023/12/25 04:01:09;;;;;;;18.20;3.25;;;;;;;;;;5008603;28;20029;-68
2023/12/25 04:03:35;;;;;;;12.13;2.33;;;;;;;;;;5009287;28;20088;-68
2023/12/25 04:06:01;;;;;;;11.07;1.98;;;;;;;;;;5008206;28;20128;-68
2023/12/25 04:08:27;;;;;;;9.63;2.35;;;;;;;;;;5007499;28;20167;-68
2023/12/25 04:10:53;;;;;;;12.88;2.35;;;;;;;;;;5007341;28;20500;-68
2023/12/25 04:13:19;;;;;;;11.70;2.60;;;;;;;;;;5007871;28;20032;-68
2023/12/25 04:15:45;;;;;;;17.23;2.88;;;;;;;;;;5008949;28;20033;-68
2023/12/25 04:18:11;;;;;;;14.45;2.70;;;;;;;;;;5008520;28;20072;-68
2023/12/25 04:20:37;;;;;;;11.93;2.78;;;;;;;;;;5007331;28;20037;-68
2023/12/25 04:23:04;;;;;;;19.15;2.67;;;;;;;;;;5008481;28;20037;-68
2023/12/25 04:25:30;;;;;;;12.48;1.90;;;;;;;;;;5008493;28;20539;-68
2023/12/25 04:27:56;;;;;;;12.52;2.10;;;;;;;;;;5007540;28;20589;-68
2023/12/25 04:30:22;;;;;;;18.48;2.75;;;;;;;;;;5008784;28;20148;-68
2023/12/25 04:32:48;;;;;;;15.75;2.47;;;;;;;;;;5009352;28;20164;-68
2023/12/25 04:35:14;;;;;;;12.52;2.17;;;;;;;;;;5007652;28;20041;-68
2023/12/25 04:37:40;;;;;;;17.08;2.53;;;;;;;;;;5007621;28;20038;-68
2023/12/25 04:40:06;;;;;;;10.23;2.03;;;;;;;;;;5006427;28;20092;-68
2023/12/25 04:42:32;;;;;;;13.30;2.72;;;;;;;;;;5008299;28;20637;-68
2023/12/25 04:44:59;;;;;;;11.23;1.95;;;;;;;;;;5008255;28;20065;-69
2023/12/25 04:47:25;;;;;;;13.80;1.75;;;;;;;;;;5007757;28;20525;-69
2023/12/25 04:49:51;;;;;;;10.38;2.20;;;;;;;;;;5006790;28;21725;-69
2023/12/25 04:52:17;;;;;;;12.27;2.42;;;;;;;;;;5007101;28;20116;-68
2023/12/25 04:54:43;;;;;;;12.75;2.13;;;;;;;;;;5006422;28;20038;-67
2023/12/25 04:57:09;;;;;;;13.48;2.30;;;;;;;;;;5007296;28;20029;-68
2023/12/25 04:59:35;;;;;;;20.98;2.55;;;;;;;;;;5007645;28;20030;-68
2023/12/25 05:02:03;;;;;;;14.90;2.65;;;;;;;;;;5006134;28;20061;-69
2023/12/25 05:04:29;;;;;;;17.52;2.70;;;;;;;;;;5008156;28;20028;-68
2023/12/25 05:06:55;;;;;;;12.63;2.53;;;;;;;;;;5006144;28;20080;-68
2023/12/25 05:09:21;;;;;;;12.13;2.88;;;;;;;;;;5008353;28;20038;-69
2023/12/25 05:11:47;;;;;;;12.32;2.47;;;;;;;;;;5006672;28;20025;-69
2023/12/25 05:14:13;;;;;;;10.35;2.00;;;;;;;;;;5007491;28;20038;-69
2023/12/25 05:16:39;;;;;;;13.30;2.72;;;;;;;;;;5007752;28;20021;-68
2023/12/25 05:19:05;;;;;;;12.50;1.92;;;;;;;;;;5007899;28;20033;-68
2023/12/25 05:21:31;;;;;;;16.38;2.75;;;;;;;;;;5008189;28;20037;-69
2023/12/25 05:23:57;;;;;;;13.32;2.80;;;;;;;;;;5006290;28;20034;-69
2023/12/25 05:26:25;;;;;;;13.10;2.17;;;;;;;;;;5007256;28;20052;-68
2023/12/25 05:28:51;;;;;;;16.90;2.70;;;;;;;;;;5007402;28;20732;-69
2023/12/25 05:31:17;;;;;;;12.05;2.40;;;;;;;;;;5006438;28;20531;-68
2023/12/25 05:33:43;;;;;;;16.00;2.90;;;;;;;;;;5007111;28;20561;-68
2023/12/25 05:36:09;;;;;;;12.73;2.40;;;;;;;;;;5006260;28;20113;-68
2023/12/25 05:38:35;;;;;;;16.85;2.50;;;;;;;;;;5006366;28;20034;-68
2023/12/25 05:41:01;;;;;;;12.50;2.33;;;;;;;;;;5006887;28;20037;-68
2023/12/25 05:43:27;;;;;;;10.98;1.98;;;;;;;;;;5006416;28;20136;-69
2023/12/25 05:45:53;;;;;;;13.20;2.40;;;;;;;;;;5006287;28;20037;-68
2023/12/25 05:48:20;;;;;;;10.75;2.03;;;;;;;;;;5006529;28;20034;-68
2023/12/25 05:50:46;;;;;;;14.20;2.58;;;;;;;;;;5006351;28;20115;-68
2023/12/25 05:53:13;;;;;;;14.73;2.72;;;;;;;;;;5006618;28;20038;-68
2023/12/25 05:55:39;;;;;;;15.65;2.28;;;;;;;;;;5006961;28;20029;-68
2023/12/25 05:58:05;;;;;;;14.15;2.30;;;;;;;;;;5005444;28;20045;-68
2023/12/25 06:00:31;;;;;;;10.63;2.13;;;;;;;;;;5006297;28;20037;-68
2023/12/25 06:02:57;;;;;;;12.55;2.08;;;;;;;;;;5007048;28;20064;-69
2023/12/25 06:05:23;;;;;;;15.07;2.30;;;;;;;;;;5005703;28;20052;-69
2023/12/25 06:07:49;;;;;;;12.63;3.13;;;;;;;;;;5006229;28;20048;-68
2023/12/25 06:10:15;;;;;;;11.52;2.60;;;;;;;;;;5006282;28;20041;-68
2023/12/25 06:12:42;;;;;;;16.08;2.50;;;;;;;;;;5006029;28;20021;-68
2023/12/25 06:15:08;;;;;;;14.75;2.22;;;;;;;;;;5005443;28;20469;-68
2023/12/25 06:17:35;;;;;;;17.17;2.80;;;;;;;;;;5004185;28;20042;-68
2023/12/25 06:20:03;;;;;;;13.88;2.33;;;;;;;;;;5006563;28;20037;-68
2023/12/25 06:22:29;;;;;;;13.43;2.78;;;;;;;;;;5005452;28;20894;-68
2023/12/25 06:24:55;;;;;;;13.85;2.53;;;;;;;;;;5006932;28;21974;-68
2023/12/25 06:27:21;;;;;;;16.90;2.85;;;;;;;;;;5005585;28;20037;-69
2023/12/25 06:29:48;;;;;;;14.52;2.78;;;;;;;;;;5006221;28;20108;-68
2023/12/25 06:32:14;;;;;;;20.15;4.40;;;;;;;;;;5005221;28;20037;-69
2023/12/25 06:34:40;;;;;;;14.18;2.85;;;;;;;;;;5002954;28;20104;-68
2023/12/25 06:37:06;;;;;;;12.23;2.08;;;;;;;;;;5005452;28;20033;-68
2023/12/25 06:39:32;;;;;;;13.32;2.25;;;;;;;;;;5005336;28;20025;-68
2023/12/25 06:41:58;;;;;;;19.25;3.05;;;;;;;;;;5005055;28;20037;-69
2023/12/25 06:44:24;;;;;;;18.08;3.00;;;;;;;;;;5005817;28;20049;-68
2023/12/25 06:46:50;;;;;;;12.93;2.40;;;;;;;;;;5004576;28;20033;-69
2023/12/25 06:49:17;;;;;;;14.25;2.95;;;;;;;;;;5003826;28;20038;-68
2023/12/25 06:51:44;;;;;;;17.75;3.20;;;;;;;;;;5005056;28;20529;-68
2023/12/25 06:54:11;;;;;;;10.85;2.05;;;;;;;;;;5004256;28;20229;-69
2023/12/25 06:56:38;;;;;;;13.00;2.30;;;;;;;;;;5005994;28;20919;-68
2023/12/25 06:59:04;;;;;;;16.52;2.50;;;;;;;;;;5004754;28;20041;-69
2023/12/25 07:01:32;;;;;;;20.33;2.92;;;;;;;;;;5005338;28;20053;-68
2023/12/25 07:03:58;;;;;;;11.80;2.22;;;;;;;;;;5005634;28;20029;-69
2023/12/25 07:06:24;;;;;;;14.68;2.60;;;;;;;;;;5005617;28;20044;-68
2023/12/25 07:08:50;;;;;;;15.48;2.30;;;;;;;;;;5006060;28;20045;-68
2023/12/25 07:11:16;;;;;;;10.15;1.83;;;;;;;;;;5004648;28;20033;-69
2023/12/25 07:13:42;;;;;;;11.25;2.35;;;;;;;;;;5005391;28;20029;-69
2023/12/25 07:16:08;;;;;;;13.88;2.25;;;;;;;;;;5004664;28;20152;-68
2023/12/25 07:18:34;;;;;;;14.90;2.15;;;;;;;;;;5005139;28;20128;-68
2023/12/25 07:21:00;;;;;;;13.18;2.45;;;;;;;;;;5005111;28;20121;-68
2023/12/25 07:23:27;;;;;;;8.75;2.00;;;;;;;;;;5004285;28;20048;-69
2023/12/25 07:25:53;;;;;;;15.52;3.20;;;;;;;;;;5004670;28;21101;-69
2023/12/25 07:28:19;;;;;;;20.55;3.28;;;;;;;;;;5005852;28;20512;-69
2023/12/25 07:30:45;;;;;;;15.10;2.97;;;;;;;;;;5005204;28;20044;-68
2023/12/25 07:33:11;;;;;;;12.50;2.67;;;;;;;;;;5004597;28;20022;-68
2023/12/25 07:35:37;;;;;;;15.55;2.60;;;;;;;;;;5006456;28;20029;-69
2023/12/25 07:38:04;;;;;;;18.92;2.45;;;;;;;;;;5004374;28;20494;-69
2023/12/25 07:40:30;;;;;;;16.48;2.55;;;;;;;;;;5004933;28;20036;-69
2023/12/25 07:42:56;;;;;;;9.63;2.60;;;;;;;;;;5004871;28;20032;-68
2023/12/25 07:45:22;;;;;;;19.65;2.83;;;;;;;;;;5005517;28;20060;-69
2023/12/25 07:47:48;;;;;;;12.50;2.03;;;;;;;;;;5005515;28;20156;-69
2023/12/25 07:50:14;;;;;;;20.13;2.40;;;;;;;;;;5005712;28;20093;-68
2023/12/25 07:52:40;;;;;;;13.18;2.45;;;;;;;;;;5005379;28;20026;-68
2023/12/25 07:55:06;;;;;;;13.43;2.30;;;;;;;;;;5005554;28;20076;-67
2023/12/25 07:57:32;;;;;;;15.48;2.78;;;;;;;;;;5004831;28;21096;-69
2023/12/25 07:59:58;;;;;;;13.25;2.22;;;;;;;;;;5004231;28;20042;-68
2023/12/25 08:02:25;;;;;;;14.07;2.13;;;;;;;;;;5004014;28;20054;-69
2023/12/25 08:04:51;;;;;;;16.27;2.60;;;;;;;;;;5001289;28;20034;-69
2023/12/25 08:07:17;;;;;;;18.70;3.70;;;;;;;;;;5004749;28;20738;-69
2023/12/25 08:09:43;;;;;;;15.93;2.85;;;;;;;;;;5004048;28;21121;-68
2023/12/25 08:12:09;;;;;;;16.08;2.35;;;;;;;;;;5004199;28;20493;-67
2023/12/25 08:14:35;;;;;;;14.20;2.97;;;;;;;;;;5002366;28;20723;-68
2023/12/25 08:17:01;;;;;;;17.42;2.75;;;;;;;;;;5003336;28;20030;-68
2023/12/25 08:19:28;;;;;;;11.23;1.95;;;;;;;;;;5003024;28;20049;-68
2023/12/25 08:21:54;;;;;;;12.18;1.92;;;;;;;;;;5008062;28;20037;-69
2023/12/25 08:24:20;;;;;;;10.68;1.73;;;;;;;;;;5006961;28;20038;-68
2023/12/25 08:26:46;;;;;;;13.98;2.00;;;;;;;;;;5007827;28;20061;-68
2023/12/25 08:29:12;;;;;;;11.85;1.52;;;;;;;;;;5007075;28;20088;-68
2023/12/25 08:31:39;;;;;;;7.80;1.40;;;;;;;;;;5006962;28;20022;-68
2023/12/25 08:34:05;;;;;;;6.88;1.45;;;;;;;;;;5009219;28;20177;-68
2023/12/25 08:36:32;;;;;;;8.70;1.75;;;;;;;;;;5009172;28;20083;-68
2023/12/25 08:38:58;;;;;;;8.88;1.95;;;;;;;;;;5022341;28;20120;-68
2023/12/25 08:41:24;;;;;;;7.15;1.60;;;;;;;;;;5006871;28;20072;-68
2023/12/25 08:43:50;;;;;;;9.85;1.88;;;;;;;;;;5008201;28;20555;-60
2023/12/25 08:46:16;;;;;;;8.88;1.63;;;;;;;;;;5007649;28;20821;-60
2023/12/25 08:48:42;;;;;;;9.23;1.92;;;;;;;;;;5007371;28;20037;-60
2023/12/25 08:51:08;;;;;;;8.55;1.70;;;;;;;;;;5008115;28;20124;-60
2023/12/25 08:53:34;;;;;;;10.85;1.40;;;;;;;;;;5006253;28;20629;-60
2023/12/25 08:56:01;;;;;;;10.00;1.63;;;;;;;;;;5008630;28;20588;-60
2023/12/25 08:58:27;;;;;;;9.73;1.58;;;;;;;;;;5007309;28;20033;-60
2023/12/25 09:00:53;;;;;;;15.63;1.60;;;;;;;;;;5005750;28;20557;-60
2023/12/25 09:03:19;;;;;;;7.28;1.38;;;;;;;;;;5006671;28;20041;-60
2023/12/25 09:05:45;;;;;;;9.88;1.60;;;;;;;;;;5004408;28;20037;-60
2023/12/25 09:08:11;;;;;;;8.27;1.85;;;;;;;;;;5005075;28;20042;-60
2023/12/25 09:10:37;;;;;;;7.82;1.05;;;;;;;;;;5007897;28;20033;-60
2023/12/25 09:13:04;;;;;;;8.60;1.58;;;;;;;;;;5007252;28;20072;-60
2023/12/25 09:15:30;;;;;;;8.65;1.63;;;;;;;;;;5007865;28;20029;-60
2023/12/25 09:17:56;;;;;;;9.07;1.75;;;;;;;;;;5007039;28;20124;-60
2023/12/25 09:20:22;;;;;;;10.95;1.83;;;;;;;;;;5006407;28;20029;-60
2023/12/25 09:22:48;;;;;;;10.95;1.98;;;;;;;;;;5007888;28;20564;-60
2023/12/25 09:25:14;;;;;;;11.25;1.95;;;;;;;;;;5006720;28;20065;-60
2023/12/25 09:27:40;;;;;;;10.20;1.60;;;;;;;;;;5008481;28;20037;-60
2023/12/25 09:30:08;;;;;;;11.60;1.63;;;;;;;;;;5008077;28;20022;-60
2023/12/25 09:32:34;;;;;;;8.82;1.75;;;;;;;;;;5006278;28;20040;-60
2023/12/25 09:35:00;;;;;;;7.35;1.33;;;;;;;;;;5007352;28;20026;-60
2023/12/25 09:37:26;;;;;;;7.40;1.27;;;;;;;;;;5005787;28;20673;-60
2023/12/25 09:39:53;;;;;;;9.10;2.15;;;;;;;;;;5006547;28;20061;-60
2023/12/25 09:42:19;;;;;;;10.43;1.83;;;;;;;;;;5006983;28;20040;-60
2023/12/25 09:44:45;;;;;;;13.52;2.65;;;;;;;;;;5005186;28;20049;-60
2023/12/25 09:47:11;;;;;;;8.23;1.83;;;;;;;;;;5006288;28;20033;-60
2023/12/25 09:49:38;;;;;;;9.73;2.15;;;;;;;;;;5007031;28;20042;-59
2023/12/25 09:52:05;;;;;;;9.30;1.55;;;;;;;;;;5006134;28;20183;-60
2023/12/25 09:54:31;;;;;;;10.23;1.60;;;;;;;;;;5002909;28;20045;-60
2023/12/25 09:56:57;;;;;;;7.68;1.52;;;;;;;;;;5004777;28;20068;-60
2023/12/25 09:59:24;;;;;;;16.13;1.98;;;;;;;;;;5004857;28;20064;-60
2023/12/25 10:01:51;;;;;;;9.30;1.63;;;;;;;;;;5005080;28;20053;-60
2023/12/25 10:04:17;;;;;;;9.48;1.65;;;;;;;;;;5005715;28;20786;-60
2023/12/25 10:06:43;;;;;;;9.43;1.95;;;;;;;;;;5004569;28;20041;-60
2023/12/25 10:09:10;;;;;;;7.32;1.20;;;;;;;;;;5005215;28;20092;-60
2023/12/25 10:11:36;;;;;;;8.27;1.55;;;;;;;;;;5002402;28;20026;-60
2023/12/25 10:14:02;;;;;;;8.70;1.88;;;;;;;;;;5005869;28;20520;-60
2023/12/25 10:16:29;;;;;;;8.77;1.95;;;;;;;;;;5004602;28;20060;-60
2023/12/25 10:18:56;;;;;;;9.10;1.65;;;;;;;;;;5006008;28;20111;-60
2023/12/25 10:21:22;;;;;;;10.88;2.30;;;;;;;;;;5006575;28;20619;-60
2023/12/25 10:23:48;;;;;;;11.02;1.65;;;;;;;;;;5005856;28;20042;-60
2023/12/25 10:26:25;;;;;;;15.88;2.10;;;;;;;;;;5005862;28;20052;-61
2023/12/25 10:28:51;;;;;;;9.73;2.13;;;;;;;;;;5005906;28;20137;-60
2023/12/25 10:31:26;;;;;;;8.73;1.60;;;;;;;;;;5005081;28;20480;-60
2023/12/25 10:33:59;;;;;;;8.43;2.13;;;;;;;;;;5010296;28;20060;-60
2023/12/25 10:36:26;;;;;;;7.90;1.50;;;;;;;;;;5007584;28;20028;-60
2023/12/25 10:38:52;;;;;;;12.77;1.67;;;;;;;;;;5006890;28;20285;-60
2023/12/25 10:41:22;;;;;;;11.48;2.30;;;;;;;;;;5006687;28;20029;-60
2023/12/25 10:43:58;;;;;;;12.80;2.10;;;;;;;;;;5006097;28;20088;-60
2023/12/25 10:46:34;;;;;;;16.10;2.28;;;;;;;;;;5006167;28;20045;-60
2023/12/25 10:49:01;;;;;;;18.85;2.20;;;;;;;;;;5006353;28;20785;-60
2023/12/25 10:51:30;;;;;;;9.35;2.00;;;;;;;;;;5006902;28;20021;-60
2023/12/25 10:54:00;;;;;;;10.13;1.58;;;;;;;;;;5006176;28;20084;-60
2023/12/25 10:56:27;;;;;;;12.52;1.95;;;;;;;;;;5006824;28;20033;-60
2023/12/25 10:58:54;;;;;;;9.95;2.70;;;;;;;;;;5006274;28;20030;-60
2023/12/25 11:01:25;;;;;;;7.47;2.25;;;;;;;;;;5006235;28;20516;-60
2023/12/25 11:03:55;;;;;;;8.38;2.03;;;;;;;;;;5006375;28;20139;-60
2023/12/25 11:06:22;;;;;;;9.60;1.85;;;;;;;;;;5006732;28;20452;-60
2023/12/25 11:08:49;;;;;;;15.20;2.40;;;;;;;;;;5005596;28;20045;-60
2023/12/25 11:11:15;;;;;;;15.68;2.50;;;;;;;;;;5005688;28;20508;-60
2023/12/25 11:13:42;;;;;;;11.20;2.38;;;;;;;;;;5006066;28;20433;-60
2023/12/25 11:16:08;;;;;;;13.43;2.47;;;;;;;;;;5003407;28;20521;-60
2023/12/25 11:18:37;;;;;;;15.52;2.28;;;;;;;;;;5006449;28;20409;-60
2023/12/25 11:21:07;;;;;;;12.93;2.35;;;;;;;;;;5006491;28;20029;-60
2023/12/25 11:23:37;;;;;;;11.02;2.33;;;;;;;;;;5005861;28;20033;-60
2023/12/25 11:26:06;;;;;;;17.45;3.05;;;;;;;;;;5006323;28;20033;-60
2023/12/25 11:28:35;;;;;;;11.90;2.47;;;;;;;;;;5005818;28;20057;-61
2023/12/25 11:31:02;;;;;;;17.45;2.45;;;;;;;;;;5005995;28;21862;-60
2023/12/25 11:33:28;;;;;;;17.35;2.83;;;;;;;;;;5005890;28;20036;-61
2023/12/25 11:35:54;;;;;;;11.30;2.22;;;;;;;;;;5006052;28;20092;-60
2023/12/25 11:38:21;;;;;;;14.85;2.22;;;;;;;;;;5006352;28;20033;-60
2023/12/25 11:40:52;;;;;;;11.38;2.55;;;;;;;;;;5006445;28;20029;-60
2023/12/25 11:43:19;;;;;;;12.75;2.28;;;;;;;;;;5006441;28;20516;-60
2023/12/25 11:45:52;;;;;;;15.63;2.25;;;;;;;;;;5005685;28;20076;-60
2023/12/25 11:48:18;;;;;;;17.92;3.10;;;;;;;;;;5004776;28;20041;-60
2023/12/25 11:50:45;;;;;;;12.52;2.08;;;;;;;;;;5005461;28;20037;-60
2023/12/25 11:53:31;;;;;;;17.77;3.60;;;;;;;;;;5005569;28;20079;-60
2023/12/25 11:55:57;;;;;;;19.92;3.55;;;;;;;;;;5007616;28;20585;-60
2023/12/25 11:58:23;;;;;;;14.05;2.75;;;;;;;;;;5010287;28;20034;-60
2023/12/25 12:00:49;;;;;;;12.73;2.83;;;;;;;;;;5009708;28;20033;-60
2023/12/25 12:03:15;;;;;;;16.15;2.75;;;;;;;;;;5008086;28;20757;-60
2023/12/25 12:05:43;;;;;;;14.50;2.78;;;;;;;;;;5008093;28;20599;-61
2023/12/25 12:08:10;;;;;;;17.20;2.80;;;;;;;;;;5004566;28;20033;-60
2023/12/25 12:10:36;;;;;;;13.13;2.60;;;;;;;;;;4999973;28;20067;-60
2023/12/25 12:13:02;;;;;;;15.38;3.00;;;;;;;;;;5003431;28;20041;-60
2023/12/25 12:15:28;;;;;;;15.40;2.78;;;;;;;;;;5003734;28;20112;-60
2023/12/25 12:17:54;;;;;;;15.45;3.00;;;;;;;;;;5002667;28;20068;-60
2023/12/25 12:20:20;;;;;;;13.77;2.83;;;;;;;;;;5001414;28;20493;-60
2023/12/25 12:22:46;;;;;;;13.90;2.60;;;;;;;;;;5002228;28;20061;-60
2023/12/25 12:25:18;;;;;;;18.08;3.13;;;;;;;;;;5003033;28;20061;-62
2023/12/25 12:27:44;;;;;;;15.82;2.40;;;;;;;;;;5007983;28;20128;-60
2023/12/25 12:30:10;;;;;;;18.40;3.10;;;;;;;;;;5008261;28;20619;-60
2023/12/25 12:32:37;;;;;;;16.83;3.55;;;;;;;;;;5008706;28;20033;-61
2023/12/25 12:35:09;;;;;;;16.02;3.47;;;;;;;;;;5008781;28;20030;-61
2023/12/25 12:37:36;;;;;;;10.80;2.42;;;;;;;;;;5008759;28;20111;-61
2023/12/25 12:40:03;;;;;;;17.52;3.42;;;;;;;;;;5008807;28;20037;-60
2023/12/25 12:42:32;;;;;;;16.50;3.67;;;;;;;;;;5008923;28;20029;-60
2023/12/25 12:44:58;;;;;;;19.60;2.85;;;;;;;;;;5009223;28;20033;-61
2023/12/25 12:47:24;;;;;;;18.42;3.53;;;;;;;;;;5009070;28;20069;-61
2023/12/25 12:49:51;;;;;;;15.18;3.65;;;;;;;;;;5008099;28;20061;-60
2023/12/25 12:52:17;;;;;;;19.10;3.35;;;;;;;;;;5009077;28;20074;-61
2023/12/25 12:54:43;;;;;;;16.95;3.22;;;;;;;;;;5008961;28;20819;-61
2023/12/25 12:57:09;;;;;;;15.35;3.17;;;;;;;;;;5008940;28;20041;-60
2023/12/25 12:59:35;;;;;;;26.40;4.15;;;;;;;;;;5009086;28;20121;-60
2023/12/25 13:02:01;;;;;;;17.48;2.88;;;;;;;;;;5003434;28;20061;-61
2023/12/25 13:04:27;;;;;;;16.08;3.25;;;;;;;;;;5008668;28;20065;-60
2023/12/25 13:06:53;;;;;;;21.17;3.30;;;;;;;;;;5007979;28;20083;-60
2023/12/25 13:09:19;;;;;;;16.42;3.55;;;;;;;;;;5008781;28;20053;-60
2023/12/25 13:11:46;;;;;;;19.33;2.80;;;;;;;;;;5008388;28;20037;-60
2023/12/25 13:14:13;;;;;;;28.33;3.25;;;;;;;;;;5012128;28;20197;-60
2023/12/25 13:16:39;;;;;;;18.95;3.17;;;;;;;;;;5007836;28;20124;-60
2023/12/25 13:19:05;;;;;;;16.75;3.20;;;;;;;;;;5008154;28;20026;-60
2023/12/25 13:21:31;;;;;;;15.85;3.30;;;;;;;;;;5006866;28;20041;-60
2023/12/25 13:23:57;;;;;;;16.20;2.90;;;;;;;;;;5007970;28;20049;-60
2023/12/25 13:26:24;;;;;;;13.57;3.10;;;;;;;;;;5008083;28;20103;-61
2023/12/25 13:28:50;;;;;;;11.68;2.78;;;;;;;;;;5008531;28;20040;-61
2023/12/25 13:31:18;;;;;;;18.45;3.95;;;;;;;;;;5008231;28;20057;-60
2023/12/25 13:33:45;;;;;;;15.05;3.75;;;;;;;;;;5007300;28;20025;-61
2023/12/25 13:36:13;;;;;;;16.65;2.53;;;;;;;;;;5008073;28;20045;-61
2023/12/25 13:38:39;;;;;;;13.57;2.20;;;;;;;;;;5008101;28;20037;-60
2023/12/25 13:41:05;;;;;;;15.95;2.72;;;;;;;;;;5007900;28;20045;-61
2023/12/25 13:43:31;;;;;;;10.07;1.90;;;;;;;;;;5007979;28;20037;-60
2023/12/25 13:45:57;;;;;;;7.03;1.60;;;;;;;;;;5007404;28;20034;-61
2023/12/25 13:48:25;;;;;;;9.45;1.70;;;;;;;;;;5007707;28;20068;-61
2023/12/25 13:50:51;;;;;;;9.13;1.70;;;;;;;;;;5006798;28;20033;-61
2023/12/25 13:53:17;;;;;;;12.70;2.30;;;;;;;;;;5007762;28;20033;-60
2023/12/25 13:55:43;;;;;;;11.13;2.10;;;;;;;;;;5008106;28;20045;-60
2023/12/25 13:58:09;;;;;;;10.73;2.20;;;;;;;;;;5007579;28;20040;-61
2023/12/25 14:00:36;;;;;;;9.20;2.50;;;;;;;;;;5007260;28;20408;-60
2023/12/25 14:03:02;;;;;;;12.77;2.70;;;;;;;;;;5007391;28;20053;-61
2023/12/25 14:05:29;;;;;;;11.40;2.45;;;;;;;;;;5006631;28;20144;-60
2023/12/25 14:07:55;;;;;;;10.45;2.25;;;;;;;;;;5007342;28;20045;-60
2023/12/25 14:10:21;;;;;;;11.20;2.65;;;;;;;;;;5006584;28;20072;-61
2023/12/25 14:12:47;;;;;;;14.10;3.58;;;;;;;;;;5007234;28;20133;-60
2023/12/25 14:15:13;;;;;;;11.02;2.75;;;;;;;;;;5005727;28;20124;-60
2023/12/25 14:17:40;;;;;;;11.20;2.40;;;;;;;;;;4997558;28;20034;-60
2023/12/25 14:20:08;;;;;;;13.48;2.40;;;;;;;;;;4997047;28;20111;-60
2023/12/25 14:22:34;;;;;;;11.63;2.85;;;;;;;;;;4999391;28;20064;-60
2023/12/25 14:25:00;;;;;;;9.52;1.63;;;;;;;;;;4998392;28;20090;-60
2023/12/25 14:27:27;;;;;;;12.75;2.58;;;;;;;;;;4998710;28;21094;-61